sensor_id;sensor_type;location;lat;lon;timestamp;P1;durP1;ratioP1;P2;durP2;ratioP2
45848;SDS011;31567;54.600;9.842;2023-09-08T00:01:35;15.23;;;13.23;;
45848;SDS011;31567;54.600;9.842;2023-09-08T00:05:14;15.90;;;13.82;;
45848;SDS011;31567;54.600;9.842;2023-09-08T00:08:54;15.80;;;13.95;;
45848;SDS011;31567;54.600;9.842;2023-09-08T00:12:33;15.02;;;13.52;;
45848;SDS011;31567;54.600;9.842;2023-09-08T00:16:13;18.02;;;13.80;;
45848;SDS011;31567;54.600;9.842;2023-09-08T00:19:52;14.13;;;12.70;;
45848;SDS011;31567;54.600;9.842;2023-09-08T00:23:32;14.63;;;12.93;;
45848;SDS011;31567;54.600;9.842;2023-09-08T00:27:11;15.07;;;13.48;;
45848;SDS011;31567;54.600;9.842;2023-09-08T00:30:51;17.60;;;13.27;;
45848;SDS011;31567;54.600;9.842;2023-09-08T00:34:30;15.98;;;13.00;;
45848;SDS011;31567;54.600;9.842;2023-09-08T00:38:10;17.50;;;13.52;;
45848;SDS011;31567;54.600;9.842;2023-09-08T00:41:49;14.25;;;12.02;;
45848;SDS011;31567;54.600;9.842;2023-09-08T00:45:29;15.88;;;14.23;;
45848;SDS011;31567;54.600;9.842;2023-09-08T00:49:09;15.32;;;12.43;;
45848;SDS011;31567;54.600;9.842;2023-09-08T00:52:50;14.57;;;13.35;;
45848;SDS011;31567;54.600;9.842;2023-09-08T00:56:30;17.50;;;14.82;;
45848;SDS011;31567;54.600;9.842;2023-09-08T01:00:09;16.45;;;14.73;;
45848;SDS011;31567;54.600;9.842;2023-09-08T01:03:50;16.48;;;14.48;;
45848;SDS011;31567;54.600;9.842;2023-09-08T01:07:30;16.73;;;14.68;;
45848;SDS011;31567;54.600;9.842;2023-09-08T01:11:10;14.30;;;12.90;;
45848;SDS011;31567;54.600;9.842;2023-09-08T01:14:50;15.98;;;14.32;;
45848;SDS011;31567;54.600;9.842;2023-09-08T01:18:29;17.63;;;14.57;;
45848;SDS011;31567;54.600;9.842;2023-09-08T01:22:11;17.83;;;14.88;;
45848;SDS011;31567;54.600;9.842;2023-09-08T01:26:07;16.52;;;14.25;;
45848;SDS011;31567;54.600;9.842;2023-09-08T01:33:29;14.45;;;12.73;;
45848;SDS011;31567;54.600;9.842;2023-09-08T01:37:09;16.77;;;13.18;;
45848;SDS011;31567;54.600;9.842;2023-09-08T01:40:48;14.23;;;12.45;;
45848;SDS011;31567;54.600;9.842;2023-09-08T01:44:28;14.07;;;12.68;;
45848;SDS011;31567;54.600;9.842;2023-09-08T01:48:07;13.45;;;12.15;;
45848;SDS011;31567;54.600;9.842;2023-09-08T01:51:47;21.95;;;13.13;;
45848;SDS011;31567;54.600;9.842;2023-09-08T01:55:27;15.20;;;12.43;;
45848;SDS011;31567;54.600;9.842;2023-09-08T01:59:06;13.75;;;12.50;;
45848;SDS011;31567;54.600;9.842;2023-09-08T02:02:46;14.27;;;11.43;;
45848;SDS011;31567;54.600;9.842;2023-09-08T02:06:25;13.73;;;12.23;;
45848;SDS011;31567;54.600;9.842;2023-09-08T02:10:05;13.50;;;12.20;;
45848;SDS011;31567;54.600;9.842;2023-09-08T02:13:44;14.50;;;11.45;;
45848;SDS011;31567;54.600;9.842;2023-09-08T02:17:24;15.35;;;13.73;;
45848;SDS011;31567;54.600;9.842;2023-09-08T02:21:03;14.20;;;12.88;;
45848;SDS011;31567;54.600;9.842;2023-09-08T02:24:43;12.73;;;11.63;;
45848;SDS011;31567;54.600;9.842;2023-09-08T02:28:23;15.30;;;12.02;;
45848;SDS011;31567;54.600;9.842;2023-09-08T02:32:02;12.63;;;11.55;;
45848;SDS011;31567;54.600;9.842;2023-09-08T02:35:42;12.63;;;11.65;;
45848;SDS011;31567;54.600;9.842;2023-09-08T02:39:22;13.93;;;12.60;;
45848;SDS011;31567;54.600;9.842;2023-09-08T02:43:02;13.68;;;12.43;;
45848;SDS011;31567;54.600;9.842;2023-09-08T02:46:42;14.35;;;12.32;;
45848;SDS011;31567;54.600;9.842;2023-09-08T02:50:22;13.85;;;12.65;;
45848;SDS011;31567;54.600;9.842;2023-09-08T02:54:02;13.45;;;12.30;;
45848;SDS011;31567;54.600;9.842;2023-09-08T02:57:41;13.77;;;12.35;;
45848;SDS011;31567;54.600;9.842;2023-09-08T03:01:21;14.57;;;13.18;;
45848;SDS011;31567;54.600;9.842;2023-09-08T03:05:00;13.75;;;11.95;;
45848;SDS011;31567;54.600;9.842;2023-09-08T03:08:40;15.40;;;13.90;;
45848;SDS011;31567;54.600;9.842;2023-09-08T03:12:20;13.50;;;12.27;;
45848;SDS011;31567;54.600;9.842;2023-09-08T03:16:03;13.40;;;12.00;;
45848;SDS011;31567;54.600;9.842;2023-09-08T03:19:45;14.32;;;12.93;;
45848;SDS011;31567;54.600;9.842;2023-09-08T03:23:24;13.95;;;12.52;;
45848;SDS011;31567;54.600;9.842;2023-09-08T03:27:04;13.60;;;12.30;;
45848;SDS011;31567;54.600;9.842;2023-09-08T03:30:43;15.43;;;14.02;;
45848;SDS011;31567;54.600;9.842;2023-09-08T03:34:23;15.82;;;14.27;;
45848;SDS011;31567;54.600;9.842;2023-09-08T03:38:02;14.73;;;13.43;;
45848;SDS011;31567;54.600;9.842;2023-09-08T03:41:42;15.55;;;14.10;;
45848;SDS011;31567;54.600;9.842;2023-09-08T03:45:22;16.00;;;14.32;;
45848;SDS011;31567;54.600;9.842;2023-09-08T03:49:01;16.52;;;14.93;;
45848;SDS011;31567;54.600;9.842;2023-09-08T03:52:41;17.45;;;15.63;;
45848;SDS011;31567;54.600;9.842;2023-09-08T03:56:20;17.38;;;15.57;;
45848;SDS011;31567;54.600;9.842;2023-09-08T04:00:00;15.57;;;14.05;;
45848;SDS011;31567;54.600;9.842;2023-09-08T04:03:39;16.85;;;15.32;;
45848;SDS011;31567;54.600;9.842;2023-09-08T04:07:19;17.38;;;15.80;;
45848;SDS011;31567;54.600;9.842;2023-09-08T04:10:58;16.80;;;15.15;;
45848;SDS011;31567;54.600;9.842;2023-09-08T04:14:38;18.17;;;16.50;;
45848;SDS011;31567;54.600;9.842;2023-09-08T04:18:17;18.80;;;16.70;;
45848;SDS011;31567;54.600;9.842;2023-09-08T04:21:57;16.58;;;14.88;;
45848;SDS011;31567;54.600;9.842;2023-09-08T04:25:36;17.77;;;16.08;;
45848;SDS011;31567;54.600;9.842;2023-09-08T04:29:16;16.70;;;15.00;;
45848;SDS011;31567;54.600;9.842;2023-09-08T04:32:56;17.42;;;14.70;;
45848;SDS011;31567;54.600;9.842;2023-09-08T04:36:35;15.68;;;14.20;;
45848;SDS011;31567;54.600;9.842;2023-09-08T04:40:15;14.40;;;13.20;;
45848;SDS011;31567;54.600;9.842;2023-09-08T04:43:54;15.93;;;14.52;;
45848;SDS011;31567;54.600;9.842;2023-09-08T04:47:36;15.18;;;13.88;;
45848;SDS011;31567;54.600;9.842;2023-09-08T04:51:16;14.38;;;13.02;;
45848;SDS011;31567;54.600;9.842;2023-09-08T04:54:56;15.90;;;14.45;;
45848;SDS011;31567;54.600;9.842;2023-09-08T04:58:35;16.08;;;13.80;;
45848;SDS011;31567;54.600;9.842;2023-09-08T05:02:15;14.55;;;13.15;;
45848;SDS011;31567;54.600;9.842;2023-09-08T05:05:54;16.25;;;14.50;;
45848;SDS011;31567;54.600;9.842;2023-09-08T05:09:34;15.02;;;13.73;;
45848;SDS011;31567;54.600;9.842;2023-09-08T05:13:15;15.18;;;13.90;;
45848;SDS011;31567;54.600;9.842;2023-09-08T05:16:55;14.88;;;13.57;;
45848;SDS011;31567;54.600;9.842;2023-09-08T05:20:35;14.95;;;13.73;;
45848;SDS011;31567;54.600;9.842;2023-09-08T05:24:14;14.57;;;13.18;;
45848;SDS011;31567;54.600;9.842;2023-09-08T05:27:54;15.75;;;14.15;;
45848;SDS011;31567;54.600;9.842;2023-09-08T05:31:33;13.95;;;12.70;;
45848;SDS011;31567;54.600;9.842;2023-09-08T05:35:13;14.63;;;13.05;;
45848;SDS011;31567;54.600;9.842;2023-09-08T05:38:53;15.45;;;13.88;;
45848;SDS011;31567;54.600;9.842;2023-09-08T05:42:32;14.73;;;13.32;;
45848;SDS011;31567;54.600;9.842;2023-09-08T05:46:12;14.60;;;13.27;;
45848;SDS011;31567;54.600;9.842;2023-09-08T05:49:52;13.43;;;12.23;;
45848;SDS011;31567;54.600;9.842;2023-09-08T05:53:31;14.30;;;13.05;;
45848;SDS011;31567;54.600;9.842;2023-09-08T05:57:11;13.82;;;12.40;;
45848;SDS011;31567;54.600;9.842;2023-09-08T06:00:51;37.78;;;24.15;;
45848;SDS011;31567;54.600;9.842;2023-09-08T06:04:30;24.65;;;17.60;;
45848;SDS011;31567;54.600;9.842;2023-09-08T06:08:11;13.30;;;12.13;;
45848;SDS011;31567;54.600;9.842;2023-09-08T06:11:51;21.70;;;16.67;;
45848;SDS011;31567;54.600;9.842;2023-09-08T06:15:30;13.25;;;11.73;;
45848;SDS011;31567;54.600;9.842;2023-09-08T06:19:11;12.57;;;11.27;;
45848;SDS011;31567;54.600;9.842;2023-09-08T06:22:51;11.60;;;10.43;;
45848;SDS011;31567;54.600;9.842;2023-09-08T06:26:30;12.65;;;11.35;;
45848;SDS011;31567;54.600;9.842;2023-09-08T06:30:10;11.82;;;10.77;;
45848;SDS011;31567;54.600;9.842;2023-09-08T06:33:52;11.43;;;10.38;;
45848;SDS011;31567;54.600;9.842;2023-09-08T06:37:35;11.70;;;10.70;;
45848;SDS011;31567;54.600;9.842;2023-09-08T06:41:16;11.13;;;10.13;;
45848;SDS011;31567;54.600;9.842;2023-09-08T06:44:56;14.23;;;11.05;;
45848;SDS011;31567;54.600;9.842;2023-09-08T06:48:35;14.00;;;11.20;;
45848;SDS011;31567;54.600;9.842;2023-09-08T06:52:16;11.15;;;10.18;;
45848;SDS011;31567;54.600;9.842;2023-09-08T06:55:56;10.05;;;9.25;;
45848;SDS011;31567;54.600;9.842;2023-09-08T06:59:36;10.27;;;9.38;;
45848;SDS011;31567;54.600;9.842;2023-09-08T07:03:15;12.07;;;8.30;;
45848;SDS011;31567;54.600;9.842;2023-09-08T07:06:55;9.30;;;8.40;;
45848;SDS011;31567;54.600;9.842;2023-09-08T07:10:34;9.43;;;8.63;;
45848;SDS011;31567;54.600;9.842;2023-09-08T07:14:14;9.02;;;8.32;;
45848;SDS011;31567;54.600;9.842;2023-09-08T07:17:53;9.45;;;8.60;;
45848;SDS011;31567;54.600;9.842;2023-09-08T07:21:33;8.88;;;8.05;;
45848;SDS011;31567;54.600;9.842;2023-09-08T07:25:13;11.63;;;9.30;;
45848;SDS011;31567;54.600;9.842;2023-09-08T07:28:52;9.23;;;8.32;;
45848;SDS011;31567;54.600;9.842;2023-09-08T07:32:32;9.13;;;8.23;;
45848;SDS011;31567;54.600;9.842;2023-09-08T07:36:11;9.40;;;8.52;;
45848;SDS011;31567;54.600;9.842;2023-09-08T07:39:52;9.00;;;8.30;;
45848;SDS011;31567;54.600;9.842;2023-09-08T07:43:32;9.23;;;8.43;;
45848;SDS011;31567;54.600;9.842;2023-09-08T07:47:11;9.73;;;8.10;;
45848;SDS011;31567;54.600;9.842;2023-09-08T07:50:51;8.43;;;7.60;;
45848;SDS011;31567;54.600;9.842;2023-09-08T07:54:30;8.20;;;7.40;;
45848;SDS011;31567;54.600;9.842;2023-09-08T07:58:10;8.48;;;7.55;;
45848;SDS011;31567;54.600;9.842;2023-09-08T08:01:49;8.43;;;7.70;;
45848;SDS011;31567;54.600;9.842;2023-09-08T08:05:29;8.25;;;6.97;;
45848;SDS011;31567;54.600;9.842;2023-09-08T08:09:09;8.73;;;7.93;;
45848;SDS011;31567;54.600;9.842;2023-09-08T08:12:49;8.52;;;7.82;;
45848;SDS011;31567;54.600;9.842;2023-09-08T08:16:28;12.68;;;7.38;;
45848;SDS011;31567;54.600;9.842;2023-09-08T08:20:09;9.25;;;8.35;;
45848;SDS011;31567;54.600;9.842;2023-09-08T08:23:55;7.97;;;7.28;;
45848;SDS011;31567;54.600;9.842;2023-09-08T08:27:35;8.82;;;7.68;;
45848;SDS011;31567;54.600;9.842;2023-09-08T08:31:15;8.30;;;7.55;;
45848;SDS011;31567;54.600;9.842;2023-09-08T08:34:54;9.77;;;7.82;;
45848;SDS011;31567;54.600;9.842;2023-09-08T08:38:34;8.30;;;7.43;;
45848;SDS011;31567;54.600;9.842;2023-09-08T08:42:14;8.45;;;7.65;;
45848;SDS011;31567;54.600;9.842;2023-09-08T08:45:53;8.70;;;7.93;;
45848;SDS011;31567;54.600;9.842;2023-09-08T08:49:34;8.70;;;7.85;;
45848;SDS011;31567;54.600;9.842;2023-09-08T08:53:14;8.02;;;7.25;;
45848;SDS011;31567;54.600;9.842;2023-09-08T08:56:56;8.00;;;7.30;;
45848;SDS011;31567;54.600;9.842;2023-09-08T09:00:36;8.00;;;7.30;;
45848;SDS011;31567;54.600;9.842;2023-09-08T09:04:16;8.52;;;7.75;;
45848;SDS011;31567;54.600;9.842;2023-09-08T09:07:57;9.93;;;8.02;;
45848;SDS011;31567;54.600;9.842;2023-09-08T09:11:37;8.55;;;7.75;;
45848;SDS011;31567;54.600;9.842;2023-09-08T09:15:17;7.93;;;7.18;;
45848;SDS011;31567;54.600;9.842;2023-09-08T09:19:07;8.00;;;7.25;;
45848;SDS011;31567;54.600;9.842;2023-09-08T09:22:47;9.25;;;7.80;;
45848;SDS011;31567;54.600;9.842;2023-09-08T09:26:28;8.20;;;7.40;;
45848;SDS011;31567;54.600;9.842;2023-09-08T09:30:08;9.15;;;7.15;;
45848;SDS011;31567;54.600;9.842;2023-09-08T09:33:48;7.85;;;7.05;;
45848;SDS011;31567;54.600;9.842;2023-09-08T09:37:40;8.30;;;7.50;;
45848;SDS011;31567;54.600;9.842;2023-09-08T09:41:20;8.10;;;7.40;;
45848;SDS011;31567;54.600;9.842;2023-09-08T09:45:01;7.60;;;7.00;;
45848;SDS011;31567;54.600;9.842;2023-09-08T09:48:42;7.95;;;7.25;;
45848;SDS011;31567;54.600;9.842;2023-09-08T09:52:22;7.88;;;7.18;;
45848;SDS011;31567;54.600;9.842;2023-09-08T09:56:04;8.38;;;7.40;;
45848;SDS011;31567;54.600;9.842;2023-09-08T09:59:44;7.97;;;7.18;;
45848;SDS011;31567;54.600;9.842;2023-09-08T10:03:24;7.75;;;6.93;;
45848;SDS011;31567;54.600;9.842;2023-09-08T10:07:05;7.40;;;6.88;;
45848;SDS011;31567;54.600;9.842;2023-09-08T10:10:45;7.43;;;6.72;;
45848;SDS011;31567;54.600;9.842;2023-09-08T10:14:26;6.85;;;6.25;;
45848;SDS011;31567;54.600;9.842;2023-09-08T10:18:09;7.93;;;7.25;;
45848;SDS011;31567;54.600;9.842;2023-09-08T10:21:50;7.28;;;6.57;;
45848;SDS011;31567;54.600;9.842;2023-09-08T10:25:34;7.30;;;6.60;;
45848;SDS011;31567;54.600;9.842;2023-09-08T10:29:18;9.45;;;7.35;;
45848;SDS011;31567;54.600;9.842;2023-09-08T10:32:58;9.20;;;6.95;;
45848;SDS011;31567;54.600;9.842;2023-09-08T10:36:39;11.05;;;6.72;;
45848;SDS011;31567;54.600;9.842;2023-09-08T10:40:22;9.27;;;6.80;;
45848;SDS011;31567;54.600;9.842;2023-09-08T10:44:03;7.72;;;7.00;;
45848;SDS011;31567;54.600;9.842;2023-09-08T10:51:26;7.60;;;6.90;;
45848;SDS011;31567;54.600;9.842;2023-09-08T10:55:05;7.22;;;6.53;;
45848;SDS011;31567;54.600;9.842;2023-09-08T10:58:54;7.57;;;6.97;;
45848;SDS011;31567;54.600;9.842;2023-09-08T11:02:49;7.80;;;6.90;;
45848;SDS011;31567;54.600;9.842;2023-09-08T11:06:35;7.50;;;6.80;;
45848;SDS011;31567;54.600;9.842;2023-09-08T11:10:14;8.23;;;7.00;;
45848;SDS011;31567;54.600;9.842;2023-09-08T11:13:54;7.40;;;6.70;;
45848;SDS011;31567;54.600;9.842;2023-09-08T11:17:34;8.95;;;6.93;;
45848;SDS011;31567;54.600;9.842;2023-09-08T11:21:18;7.65;;;6.95;;
45848;SDS011;31567;54.600;9.842;2023-09-08T11:24:57;9.02;;;7.20;;
45848;SDS011;31567;54.600;9.842;2023-09-08T11:28:37;9.63;;;6.90;;
45848;SDS011;31567;54.600;9.842;2023-09-08T11:32:17;7.18;;;6.43;;
45848;SDS011;31567;54.600;9.842;2023-09-08T11:35:56;7.05;;;6.47;;
45848;SDS011;31567;54.600;9.842;2023-09-08T11:39:37;7.05;;;6.32;;
45848;SDS011;31567;54.600;9.842;2023-09-08T11:43:18;7.32;;;6.63;;
45848;SDS011;31567;54.600;9.842;2023-09-08T11:46:58;7.32;;;5.95;;
45848;SDS011;31567;54.600;9.842;2023-09-08T11:50:38;6.40;;;5.88;;
45848;SDS011;31567;54.600;9.842;2023-09-08T11:54:20;7.18;;;6.47;;
45848;SDS011;31567;54.600;9.842;2023-09-08T11:58:00;9.60;;;5.85;;
45848;SDS011;31567;54.600;9.842;2023-09-08T12:01:40;6.97;;;6.38;;
45848;SDS011;31567;54.600;9.842;2023-09-08T12:05:20;7.20;;;6.25;;
45848;SDS011;31567;54.600;9.842;2023-09-08T12:09:01;10.77;;;6.20;;
45848;SDS011;31567;54.600;9.842;2023-09-08T12:12:42;6.80;;;6.03;;
45848;SDS011;31567;54.600;9.842;2023-09-08T12:16:25;6.50;;;6.00;;
45848;SDS011;31567;54.600;9.842;2023-09-08T12:20:13;6.50;;;5.55;;
45848;SDS011;31567;54.600;9.842;2023-09-08T12:23:53;8.27;;;6.03;;
45848;SDS011;31567;54.600;9.842;2023-09-08T12:27:35;6.18;;;5.68;;
45848;SDS011;31567;54.600;9.842;2023-09-08T12:31:15;6.40;;;5.90;;
45848;SDS011;31567;54.600;9.842;2023-09-08T12:34:57;5.57;;;5.07;;
45848;SDS011;31567;54.600;9.842;2023-09-08T12:38:37;6.30;;;5.70;;
45848;SDS011;31567;54.600;9.842;2023-09-08T12:42:17;7.47;;;5.55;;
45848;SDS011;31567;54.600;9.842;2023-09-08T12:45:57;9.05;;;5.90;;
45848;SDS011;31567;54.600;9.842;2023-09-08T12:49:37;8.82;;;5.53;;
45848;SDS011;31567;54.600;9.842;2023-09-08T12:53:17;6.38;;;5.25;;
45848;SDS011;31567;54.600;9.842;2023-09-08T12:56:59;6.75;;;5.57;;
45848;SDS011;31567;54.600;9.842;2023-09-08T13:00:38;6.00;;;5.40;;
45848;SDS011;31567;54.600;9.842;2023-09-08T13:04:18;6.18;;;5.57;;
45848;SDS011;31567;54.600;9.842;2023-09-08T13:07:58;5.93;;;5.20;;
45848;SDS011;31567;54.600;9.842;2023-09-08T13:11:37;5.63;;;5.15;;
45848;SDS011;31567;54.600;9.842;2023-09-08T13:15:17;7.15;;;5.07;;
45848;SDS011;31567;54.600;9.842;2023-09-08T13:18:56;5.93;;;5.28;;
45848;SDS011;31567;54.600;9.842;2023-09-08T13:22:36;6.78;;;5.13;;
45848;SDS011;31567;54.600;9.842;2023-09-08T13:26:16;5.72;;;4.70;;
45848;SDS011;31567;54.600;9.842;2023-09-08T13:30:07;5.63;;;4.68;;
45848;SDS011;31567;54.600;9.842;2023-09-08T13:33:51;6.00;;;5.38;;
45848;SDS011;31567;54.600;9.842;2023-09-08T13:37:31;5.53;;;5.07;;
45848;SDS011;31567;54.600;9.842;2023-09-08T13:41:13;5.75;;;5.10;;
45848;SDS011;31567;54.600;9.842;2023-09-08T13:44:52;7.45;;;4.80;;
45848;SDS011;31567;54.600;9.842;2023-09-08T13:48:34;5.63;;;5.07;;
45848;SDS011;31567;54.600;9.842;2023-09-08T13:52:13;7.88;;;4.72;;
45848;SDS011;31567;54.600;9.842;2023-09-08T13:55:53;8.23;;;4.85;;
45848;SDS011;31567;54.600;9.842;2023-09-08T13:59:33;5.80;;;4.55;;
45848;SDS011;31567;54.600;9.842;2023-09-08T14:03:12;8.18;;;5.20;;
45848;SDS011;31567;54.600;9.842;2023-09-08T14:06:52;7.80;;;4.68;;
45848;SDS011;31567;54.600;9.842;2023-09-08T14:10:32;5.95;;;5.32;;
45848;SDS011;31567;54.600;9.842;2023-09-08T14:14:12;7.70;;;5.30;;
45848;SDS011;31567;54.600;9.842;2023-09-08T14:17:51;6.00;;;5.28;;
45848;SDS011;31567;54.600;9.842;2023-09-08T14:21:31;5.45;;;4.57;;
45848;SDS011;31567;54.600;9.842;2023-09-08T14:25:11;5.35;;;4.82;;
45848;SDS011;31567;54.600;9.842;2023-09-08T14:28:51;7.72;;;5.13;;
45848;SDS011;31567;54.600;9.842;2023-09-08T14:32:32;6.18;;;5.15;;
45848;SDS011;31567;54.600;9.842;2023-09-08T14:36:16;7.30;;;5.00;;
45848;SDS011;31567;54.600;9.842;2023-09-08T14:39:56;7.65;;;4.93;;
45848;SDS011;31567;54.600;9.842;2023-09-08T14:43:36;6.07;;;5.25;;
45848;SDS011;31567;54.600;9.842;2023-09-08T14:47:16;5.28;;;4.88;;
45848;SDS011;31567;54.600;9.842;2023-09-08T14:50:56;5.65;;;5.13;;
45848;SDS011;31567;54.600;9.842;2023-09-08T14:54:36;5.47;;;5.05;;
45848;SDS011;31567;54.600;9.842;2023-09-08T14:58:16;6.00;;;4.30;;
45848;SDS011;31567;54.600;9.842;2023-09-08T15:01:55;5.50;;;4.90;;
45848;SDS011;31567;54.600;9.842;2023-09-08T15:05:35;6.82;;;5.32;;
45848;SDS011;31567;54.600;9.842;2023-09-08T15:09:15;8.05;;;4.38;;
45848;SDS011;31567;54.600;9.842;2023-09-08T15:12:54;5.57;;;4.60;;
45848;SDS011;31567;54.600;9.842;2023-09-08T15:16:34;10.10;;;4.60;;
45848;SDS011;31567;54.600;9.842;2023-09-08T15:20:13;6.95;;;4.60;;
45848;SDS011;31567;54.600;9.842;2023-09-08T15:23:53;5.50;;;4.50;;
45848;SDS011;31567;54.600;9.842;2023-09-08T15:27:32;7.65;;;5.25;;
45848;SDS011;31567;54.600;9.842;2023-09-08T15:31:15;6.47;;;5.47;;
45848;SDS011;31567;54.600;9.842;2023-09-08T15:34:55;5.50;;;5.00;;
45848;SDS011;31567;54.600;9.842;2023-09-08T15:38:34;7.40;;;5.93;;
45848;SDS011;31567;54.600;9.842;2023-09-08T15:42:14;7.88;;;5.22;;
45848;SDS011;31567;54.600;9.842;2023-09-08T15:45:53;5.47;;;4.97;;
45848;SDS011;31567;54.600;9.842;2023-09-08T15:49:33;5.35;;;4.88;;
45848;SDS011;31567;54.600;9.842;2023-09-08T15:53:12;5.03;;;4.63;;
45848;SDS011;31567;54.600;9.842;2023-09-08T15:56:52;5.78;;;4.80;;
45848;SDS011;31567;54.600;9.842;2023-09-08T16:00:33;4.53;;;4.10;;
45848;SDS011;31567;54.600;9.842;2023-09-08T16:04:12;5.18;;;4.30;;
45848;SDS011;31567;54.600;9.842;2023-09-08T16:07:53;6.15;;;4.85;;
45848;SDS011;31567;54.600;9.842;2023-09-08T16:11:33;6.25;;;5.10;;
45848;SDS011;31567;54.600;9.842;2023-09-08T16:15:12;6.60;;;5.40;;
45848;SDS011;31567;54.600;9.842;2023-09-08T16:18:52;6.15;;;5.45;;
45848;SDS011;31567;54.600;9.842;2023-09-08T16:22:31;5.95;;;5.03;;
45848;SDS011;31567;54.600;9.842;2023-09-08T16:26:11;9.73;;;5.45;;
45848;SDS011;31567;54.600;9.842;2023-09-08T16:29:50;4.88;;;4.47;;
45848;SDS011;31567;54.600;9.842;2023-09-08T16:33:30;8.07;;;4.95;;
45848;SDS011;31567;54.600;9.842;2023-09-08T16:37:09;7.45;;;5.15;;
45848;SDS011;31567;54.600;9.842;2023-09-08T16:40:49;5.60;;;5.07;;
45848;SDS011;31567;54.600;9.842;2023-09-08T16:44:29;6.20;;;5.20;;
45848;SDS011;31567;54.600;9.842;2023-09-08T16:48:09;5.82;;;5.32;;
45848;SDS011;31567;54.600;9.842;2023-09-08T16:51:48;6.57;;;4.93;;
45848;SDS011;31567;54.600;9.842;2023-09-08T16:55:28;8.48;;;5.32;;
45848;SDS011;31567;54.600;9.842;2023-09-08T16:59:07;6.00;;;5.50;;
45848;SDS011;31567;54.600;9.842;2023-09-08T17:02:47;8.13;;;5.50;;
45848;SDS011;31567;54.600;9.842;2023-09-08T17:06:26;8.23;;;5.47;;
45848;SDS011;31567;54.600;9.842;2023-09-08T17:10:06;6.60;;;5.53;;
45848;SDS011;31567;54.600;9.842;2023-09-08T17:13:46;7.47;;;5.20;;
45848;SDS011;31567;54.600;9.842;2023-09-08T17:17:25;6.13;;;5.18;;
45848;SDS011;31567;54.600;9.842;2023-09-08T17:21:05;5.90;;;5.40;;
45848;SDS011;31567;54.600;9.842;2023-09-08T17:24:44;8.15;;;6.15;;
45848;SDS011;31567;54.600;9.842;2023-09-08T17:28:24;8.68;;;5.60;;
45848;SDS011;31567;54.600;9.842;2023-09-08T17:32:04;6.70;;;5.65;;
45848;SDS011;31567;54.600;9.842;2023-09-08T17:35:44;6.38;;;5.78;;
45848;SDS011;31567;54.600;9.842;2023-09-08T17:39:25;7.15;;;6.45;;
45848;SDS011;31567;54.600;9.842;2023-09-08T17:43:05;7.15;;;6.15;;
45848;SDS011;31567;54.600;9.842;2023-09-08T17:46:45;7.97;;;6.78;;
45848;SDS011;31567;54.600;9.842;2023-09-08T17:50:25;7.32;;;6.50;;
45848;SDS011;31567;54.600;9.842;2023-09-08T17:54:04;7.60;;;6.18;;
45848;SDS011;31567;54.600;9.842;2023-09-08T17:57:44;7.30;;;6.47;;
45848;SDS011;31567;54.600;9.842;2023-09-08T18:01:23;8.90;;;6.65;;
45848;SDS011;31567;54.600;9.842;2023-09-08T18:05:03;10.60;;;6.40;;
45848;SDS011;31567;54.600;9.842;2023-09-08T18:08:43;7.20;;;6.47;;
45848;SDS011;31567;54.600;9.842;2023-09-08T18:12:22;9.07;;;6.45;;
45848;SDS011;31567;54.600;9.842;2023-09-08T18:16:02;6.75;;;6.05;;
45848;SDS011;31567;54.600;9.842;2023-09-08T18:19:42;7.03;;;6.32;;
45848;SDS011;31567;54.600;9.842;2023-09-08T18:23:22;6.82;;;6.20;;
45848;SDS011;31567;54.600;9.842;2023-09-08T18:27:01;9.23;;;6.47;;
45848;SDS011;31567;54.600;9.842;2023-09-08T18:30:41;9.00;;;6.53;;
45848;SDS011;31567;54.600;9.842;2023-09-08T18:34:21;6.90;;;6.28;;
45848;SDS011;31567;54.600;9.842;2023-09-08T18:38:01;7.18;;;6.47;;
45848;SDS011;31567;54.600;9.842;2023-09-08T18:41:42;6.35;;;5.93;;
45848;SDS011;31567;54.600;9.842;2023-09-08T18:45:22;6.75;;;6.15;;
45848;SDS011;31567;54.600;9.842;2023-09-08T18:49:01;6.95;;;6.35;;
45848;SDS011;31567;54.600;9.842;2023-09-08T18:52:41;7.45;;;6.75;;
45848;SDS011;31567;54.600;9.842;2023-09-08T18:56:20;8.40;;;6.65;;
45848;SDS011;31567;54.600;9.842;2023-09-08T19:00:00;7.70;;;6.57;;
45848;SDS011;31567;54.600;9.842;2023-09-08T19:03:39;7.43;;;6.07;;
45848;SDS011;31567;54.600;9.842;2023-09-08T19:07:22;8.48;;;6.63;;
45848;SDS011;31567;54.600;9.842;2023-09-08T19:11:01;7.78;;;6.47;;
45848;SDS011;31567;54.600;9.842;2023-09-08T19:14:41;8.63;;;6.43;;
45848;SDS011;31567;54.600;9.842;2023-09-08T19:18:21;8.23;;;6.60;;
45848;SDS011;31567;54.600;9.842;2023-09-08T19:22:00;7.75;;;6.35;;
45848;SDS011;31567;54.600;9.842;2023-09-08T19:25:40;7.13;;;5.70;;
45848;SDS011;31567;54.600;9.842;2023-09-08T19:29:22;7.47;;;6.10;;
45848;SDS011;31567;54.600;9.842;2023-09-08T19:33:02;8.77;;;6.53;;
45848;SDS011;31567;54.600;9.842;2023-09-08T19:36:42;6.93;;;6.07;;
45848;SDS011;31567;54.600;9.842;2023-09-08T19:40:22;6.70;;;6.15;;
45848;SDS011;31567;54.600;9.842;2023-09-08T19:44:01;7.18;;;6.40;;
45848;SDS011;31567;54.600;9.842;2023-09-08T19:47:42;7.10;;;6.45;;
45848;SDS011;31567;54.600;9.842;2023-09-08T19:51:22;7.25;;;6.57;;
45848;SDS011;31567;54.600;9.842;2023-09-08T19:55:02;6.30;;;5.75;;
45848;SDS011;31567;54.600;9.842;2023-09-08T19:58:41;7.13;;;6.53;;
45848;SDS011;31567;54.600;9.842;2023-09-08T20:02:21;9.00;;;6.78;;
45848;SDS011;31567;54.600;9.842;2023-09-08T20:06:01;7.57;;;6.88;;
45848;SDS011;31567;54.600;9.842;2023-09-08T20:09:40;7.45;;;6.70;;
45848;SDS011;31567;54.600;9.842;2023-09-08T20:13:20;7.55;;;6.70;;
45848;SDS011;31567;54.600;9.842;2023-09-08T20:17:00;7.13;;;6.03;;
45848;SDS011;31567;54.600;9.842;2023-09-08T20:20:42;8.68;;;7.38;;
45848;SDS011;31567;54.600;9.842;2023-09-08T20:24:21;8.15;;;7.35;;
45848;SDS011;31567;54.600;9.842;2023-09-08T20:28:01;8.80;;;6.65;;
45848;SDS011;31567;54.600;9.842;2023-09-08T20:31:40;7.75;;;6.93;;
45848;SDS011;31567;54.600;9.842;2023-09-08T20:35:20;7.85;;;7.05;;
45848;SDS011;31567;54.600;9.842;2023-09-08T20:38:59;8.35;;;7.38;;
45848;SDS011;31567;54.600;9.842;2023-09-08T20:42:39;8.60;;;7.30;;
45848;SDS011;31567;54.600;9.842;2023-09-08T20:46:19;10.43;;;8.18;;
45848;SDS011;31567;54.600;9.842;2023-09-08T20:49:59;8.48;;;7.78;;
45848;SDS011;31567;54.600;9.842;2023-09-08T20:53:39;9.00;;;8.07;;
45848;SDS011;31567;54.600;9.842;2023-09-08T20:57:20;9.45;;;7.90;;
45848;SDS011;31567;54.600;9.842;2023-09-08T21:00:59;10.10;;;9.18;;
45848;SDS011;31567;54.600;9.842;2023-09-08T21:04:40;10.70;;;9.70;;
45848;SDS011;31567;54.600;9.842;2023-09-08T21:08:20;10.60;;;9.55;;
45848;SDS011;31567;54.600;9.842;2023-09-08T21:11:59;9.65;;;8.73;;
45848;SDS011;31567;54.600;9.842;2023-09-08T21:15:39;8.80;;;7.93;;
45848;SDS011;31567;54.600;9.842;2023-09-08T21:19:19;9.93;;;9.15;;
45848;SDS011;31567;54.600;9.842;2023-09-08T21:22:59;10.65;;;9.65;;
45848;SDS011;31567;54.600;9.842;2023-09-08T21:26:42;10.43;;;9.35;;
45848;SDS011;31567;54.600;9.842;2023-09-08T21:30:21;11.63;;;10.52;;
45848;SDS011;31567;54.600;9.842;2023-09-08T21:34:01;12.07;;;10.57;;
45848;SDS011;31567;54.600;9.842;2023-09-08T21:37:40;12.60;;;11.35;;
45848;SDS011;31567;54.600;9.842;2023-09-08T21:41:20;12.18;;;11.07;;
45848;SDS011;31567;54.600;9.842;2023-09-08T21:44:59;13.00;;;11.85;;
45848;SDS011;31567;54.600;9.842;2023-09-08T21:48:39;12.18;;;11.18;;
45848;SDS011;31567;54.600;9.842;2023-09-08T21:52:18;13.45;;;12.35;;
45848;SDS011;31567;54.600;9.842;2023-09-08T21:55:58;14.70;;;13.40;;
45848;SDS011;31567;54.600;9.842;2023-09-08T21:59:37;14.55;;;13.30;;